sensor_id;sensor_type;location;lat;lon;timestamp;pressure;altitude;pressure_sealevel;temperature;humidity
2178;BME280;1095;50.992;6.798;2024-02-14T00:01:17;101052.19;;;8.33;75.49
2178;BME280;1095;50.992;6.798;2024-02-14T00:03:43;101046.91;;;8.33;75.22
2178;BME280;1095;50.992;6.798;2024-02-14T00:06:12;101039.97;;;8.32;75.39
2178;BME280;1095;50.992;6.798;2024-02-14T00:08:40;101041.63;;;8.33;75.58
2178;BME280;1095;50.992;6.798;2024-02-14T00:11:07;101039.66;;;8.37;75.54
2178;BME280;1095;50.992;6.798;2024-02-14T00:13:34;101036.81;;;8.40;75.49
2178;BME280;1095;50.992;6.798;2024-02-14T00:16:01;101031.41;;;8.41;75.50
2178;BME280;1095;50.992;6.798;2024-02-14T00:18:28;101028.78;;;8.41;75.63
2178;BME280;1095;50.992;6.798;2024-02-14T00:20:55;101038.03;;;8.34;76.66
2178;BME280;1095;50.992;6.798;2024-02-14T00:23:25;101035.09;;;8.39;76.82
2178;BME280;1095;50.992;6.798;2024-02-14T00:25:53;101028.91;;;8.40;77.17
2178;BME280;1095;50.992;6.798;2024-02-14T00:28:25;101025.41;;;8.39;76.71
2178;BME280;1095;50.992;6.798;2024-02-14T00:30:52;101023.50;;;8.41;76.46
2178;BME280;1095;50.992;6.798;2024-02-14T00:33:24;101026.97;;;8.42;76.89
2178;BME280;1095;50.992;6.798;2024-02-14T00:35:54;101024.22;;;8.43;76.85
2178;BME280;1095;50.992;6.798;2024-02-14T00:38:26;101019.50;;;8.48;75.98
2178;BME280;1095;50.992;6.798;2024-02-14T00:40:54;101024.97;;;8.45;76.51
2178;BME280;1095;50.992;6.798;2024-02-14T00:43:21;101030.25;;;8.45;76.70
2178;BME280;1095;50.992;6.798;2024-02-14T00:45:48;101019.56;;;8.47;77.13
2178;BME280;1095;50.992;6.798;2024-02-14T00:48:14;101025.31;;;8.41;77.68
2178;BME280;1095;50.992;6.798;2024-02-14T00:54:13;101012.84;;;8.43;78.41
2178;BME280;1095;50.992;6.798;2024-02-14T00:56:54;101012.00;;;8.42;78.26
2178;BME280;1095;50.992;6.798;2024-02-14T00:59:21;101011.38;;;8.39;78.28
2178;BME280;1095;50.992;6.798;2024-02-14T01:04:52;101020.88;;;8.41;78.24
2178;BME280;1095;50.992;6.798;2024-02-14T01:07:21;101007.69;;;8.41;77.94
2178;BME280;1095;50.992;6.798;2024-02-14T01:09:51;101008.41;;;8.43;78.63
2178;BME280;1095;50.992;6.798;2024-02-14T01:12:34;100997.63;;;8.46;78.08
2178;BME280;1095;50.992;6.798;2024-02-14T01:15:13;101001.31;;;8.44;78.51
2178;BME280;1095;50.992;6.798;2024-02-14T01:17:41;101002.41;;;8.41;78.69
2178;BME280;1095;50.992;6.798;2024-02-14T01:20:11;100997.97;;;8.42;78.49
2178;BME280;1095;50.992;6.798;2024-02-14T01:22:41;100994.63;;;8.40;79.08
2178;BME280;1095;50.992;6.798;2024-02-14T01:25:08;100991.84;;;8.41;78.42
2178;BME280;1095;50.992;6.798;2024-02-14T01:27:37;100996.91;;;8.44;78.64
2178;BME280;1095;50.992;6.798;2024-02-14T01:30:05;100991.66;;;8.44;78.74
2178;BME280;1095;50.992;6.798;2024-02-14T01:32:31;100989.84;;;8.45;79.28
2178;BME280;1095;50.992;6.798;2024-02-14T01:34:58;100989.59;;;8.48;79.08
2178;BME280;1095;50.992;6.798;2024-02-14T01:37:26;100998.47;;;8.47;78.88
2178;BME280;1095;50.992;6.798;2024-02-14T01:39:54;100992.47;;;8.45;79.07
2178;BME280;1095;50.992;6.798;2024-02-14T01:42:22;100998.59;;;8.45;79.44
2178;BME280;1095;50.992;6.798;2024-02-14T01:44:54;101004.91;;;8.43;79.93
2178;BME280;1095;50.992;6.798;2024-02-14T01:47:31;100996.91;;;8.44;79.78
2178;BME280;1095;50.992;6.798;2024-02-14T01:52:54;100995.00;;;8.46;80.59
2178;BME280;1095;50.992;6.798;2024-02-14T01:55:24;100989.72;;;8.46;80.11
2178;BME280;1095;50.992;6.798;2024-02-14T01:57:59;100981.69;;;8.48;79.90
2178;BME280;1095;50.992;6.798;2024-02-14T02:00:40;100987.91;;;8.47;80.58
2178;BME280;1095;50.992;6.798;2024-02-14T02:03:28;100997.84;;;8.43;81.04
2178;BME280;1095;50.992;6.798;2024-02-14T02:06:05;100996.25;;;8.53;80.18
2178;BME280;1095;50.992;6.798;2024-02-14T02:08:32;100996.34;;;8.52;80.33
2178;BME280;1095;50.992;6.798;2024-02-14T02:10:59;100997.41;;;8.49;80.78
2178;BME280;1095;50.992;6.798;2024-02-14T02:13:26;100992.66;;;8.54;80.77
2178;BME280;1095;50.992;6.798;2024-02-14T02:15:54;100991.56;;;8.57;80.70
2178;BME280;1095;50.992;6.798;2024-02-14T02:18:22;100980.63;;;8.50;80.75
2178;BME280;1095;50.992;6.798;2024-02-14T02:20:54;100991.19;;;8.50;81.67
2178;BME280;1095;50.992;6.798;2024-02-14T02:23:22;100992.16;;;8.49;81.96
2178;BME280;1095;50.992;6.798;2024-02-14T02:25:48;100983.41;;;8.49;81.66
2178;BME280;1095;50.992;6.798;2024-02-14T02:28:15;100983.78;;;8.55;81.32
2178;BME280;1095;50.992;6.798;2024-02-14T02:30:42;100987.25;;;8.56;81.46
2178;BME280;1095;50.992;6.798;2024-02-14T02:33:11;100982.47;;;8.61;81.46
2178;BME280;1095;50.992;6.798;2024-02-14T02:35:39;100990.72;;;8.56;81.30
2178;BME280;1095;50.992;6.798;2024-02-14T02:38:10;100994.75;;;8.62;81.63
2178;BME280;1095;50.992;6.798;2024-02-14T02:40:38;101004.41;;;8.61;81.31
2178;BME280;1095;50.992;6.798;2024-02-14T02:43:04;101021.00;;;8.64;81.81
2178;BME280;1095;50.992;6.798;2024-02-14T02:45:31;101018.56;;;8.60;81.71
2178;BME280;1095;50.992;6.798;2024-02-14T02:47:59;101014.03;;;8.63;81.72
2178;BME280;1095;50.992;6.798;2024-02-14T02:50:27;101010.94;;;8.69;81.74
2178;BME280;1095;50.992;6.798;2024-02-14T02:52:55;101016.44;;;8.66;81.73
2178;BME280;1095;50.992;6.798;2024-02-14T02:55:23;101024.09;;;8.57;81.81
2178;BME280;1095;50.992;6.798;2024-02-14T02:57:51;101019.19;;;8.64;81.94
2178;BME280;1095;50.992;6.798;2024-02-14T03:00:18;101014.75;;;8.65;82.00
2178;BME280;1095;50.992;6.798;2024-02-14T03:02:46;101009.69;;;8.61;82.16
2178;BME280;1095;50.992;6.798;2024-02-14T03:05:18;101012.34;;;8.61;82.50
2178;BME280;1095;50.992;6.798;2024-02-14T03:07:48;101012.88;;;8.67;82.22
2178;BME280;1095;50.992;6.798;2024-02-14T03:10:18;101002.75;;;8.60;82.58
2178;BME280;1095;50.992;6.798;2024-02-14T03:12:46;101011.78;;;8.69;82.52
2178;BME280;1095;50.992;6.798;2024-02-14T03:15:15;101008.31;;;8.69;82.39
2178;BME280;1095;50.992;6.798;2024-02-14T03:17:43;101010.09;;;8.68;82.58
2178;BME280;1095;50.992;6.798;2024-02-14T03:20:11;100999.44;;;8.70;82.94
2178;BME280;1095;50.992;6.798;2024-02-14T03:22:39;101006.06;;;8.75;83.13
2178;BME280;1095;50.992;6.798;2024-02-14T03:25:11;101001.84;;;8.73;82.90
2178;BME280;1095;50.992;6.798;2024-02-14T03:27:38;101009.06;;;8.71;83.24
2178;BME280;1095;50.992;6.798;2024-02-14T03:30:06;101009.88;;;8.71;83.49
2178;BME280;1095;50.992;6.798;2024-02-14T03:32:34;101021.66;;;8.78;83.57
2178;BME280;1095;50.992;6.798;2024-02-14T03:35:01;101017.69;;;8.73;83.78
2178;BME280;1095;50.992;6.798;2024-02-14T03:37:28;101002.47;;;8.76;84.10
2178;BME280;1095;50.992;6.798;2024-02-14T03:39:54;101004.38;;;8.74;83.94
2178;BME280;1095;50.992;6.798;2024-02-14T03:42:22;100996.09;;;8.79;84.13
2178;BME280;1095;50.992;6.798;2024-02-14T03:44:48;101010.47;;;8.75;84.44
2178;BME280;1095;50.992;6.798;2024-02-14T03:47:15;101006.16;;;8.74;83.84
2178;BME280;1095;50.992;6.798;2024-02-14T03:49:43;100998.38;;;8.72;84.33
2178;BME280;1095;50.992;6.798;2024-02-14T03:52:09;101006.91;;;8.76;84.58
2178;BME280;1095;50.992;6.798;2024-02-14T03:54:37;101011.56;;;8.72;84.36
2178;BME280;1095;50.992;6.798;2024-02-14T03:57:03;101008.09;;;8.72;84.41
2178;BME280;1095;50.992;6.798;2024-02-14T03:59:32;101007.34;;;8.70;84.48
2178;BME280;1095;50.992;6.798;2024-02-14T04:02:00;101002.19;;;8.68;84.69
2178;BME280;1095;50.992;6.798;2024-02-14T04:04:27;101008.19;;;8.70;84.92
2178;BME280;1095;50.992;6.798;2024-02-14T04:06:55;101008.81;;;8.74;84.70
2178;BME280;1095;50.992;6.798;2024-02-14T04:09:23;101010.94;;;8.69;84.98
2178;BME280;1095;50.992;6.798;2024-02-14T04:11:53;101010.94;;;8.69;85.07
2178;BME280;1095;50.992;6.798;2024-02-14T04:14:20;101008.44;;;8.67;85.25
2178;BME280;1095;50.992;6.798;2024-02-14T04:16:47;101016.22;;;8.69;85.08
2178;BME280;1095;50.992;6.798;2024-02-14T04:19:14;101011.44;;;8.74;85.25
2178;BME280;1095;50.992;6.798;2024-02-14T04:21:42;101014.09;;;8.74;85.38
2178;BME280;1095;50.992;6.798;2024-02-14T04:24:10;101017.47;;;8.76;85.10
2178;BME280;1095;50.992;6.798;2024-02-14T04:26:37;101015.66;;;8.76;85.99
2178;BME280;1095;50.992;6.798;2024-02-14T04:29:04;101009.41;;;8.77;85.50
2178;BME280;1095;50.992;6.798;2024-02-14T04:31:30;101019.75;;;8.80;85.90
2178;BME280;1095;50.992;6.798;2024-02-14T04:33:57;101009.31;;;8.79;85.74
2178;BME280;1095;50.992;6.798;2024-02-14T04:36:24;101014.03;;;8.86;85.60
2178;BME280;1095;50.992;6.798;2024-02-14T04:39:31;101017.97;;;8.81;85.75
2178;BME280;1095;50.992;6.798;2024-02-14T04:43:20;101014.38;;;8.82;86.19
2178;BME280;1095;50.992;6.798;2024-02-14T04:46:38;101005.59;;;8.81;86.25
2178;BME280;1095;50.992;6.798;2024-02-14T04:49:47;101014.31;;;8.71;86.38
2178;BME280;1095;50.992;6.798;2024-02-14T04:52:35;101024.31;;;8.54;87.28
2178;BME280;1095;50.992;6.798;2024-02-14T04:55:06;101017.56;;;8.50;87.50
2178;BME280;1095;50.992;6.798;2024-02-14T04:57:50;101031.72;;;8.49;87.58
2178;BME280;1095;50.992;6.798;2024-02-14T05:00:30;101027.06;;;8.53;87.72
2178;BME280;1095;50.992;6.798;2024-02-14T05:03:22;101024.94;;;8.58;87.37
2178;BME280;1095;50.992;6.798;2024-02-14T05:06:04;101028.91;;;8.64;87.10
2178;BME280;1095;50.992;6.798;2024-02-14T05:08:39;101031.53;;;8.64;87.12
2178;BME280;1095;50.992;6.798;2024-02-14T05:11:21;101039.41;;;8.76;86.98
2178;BME280;1095;50.992;6.798;2024-02-14T05:13:48;101040.25;;;8.77;87.21
2178;BME280;1095;50.992;6.798;2024-02-14T05:16:17;101037.28;;;8.81;87.42
2178;BME280;1095;50.992;6.798;2024-02-14T05:18:44;101046.03;;;8.82;87.41
2178;BME280;1095;50.992;6.798;2024-02-14T05:21:11;101041.25;;;8.87;88.15
2178;BME280;1095;50.992;6.798;2024-02-14T05:23:38;101050.50;;;8.93;88.38
2178;BME280;1095;50.992;6.798;2024-02-14T05:26:06;101048.22;;;8.88;88.95
2178;BME280;1095;50.992;6.798;2024-02-14T05:28:35;101052.97;;;8.83;89.90
2178;BME280;1095;50.992;6.798;2024-02-14T05:31:03;101050.69;;;8.78;91.41
2178;BME280;1095;50.992;6.798;2024-02-14T05:37:02;101056.81;;;8.79;91.91
2178;BME280;1095;50.992;6.798;2024-02-14T05:39:42;101057.75;;;8.78;91.62
2178;BME280;1095;50.992;6.798;2024-02-14T05:48:56;101067.47;;;8.77;91.40
2178;BME280;1095;50.992;6.798;2024-02-14T05:51:53;101076.97;;;8.80;91.54
2178;BME280;1095;50.992;6.798;2024-02-14T05:54:47;101064.97;;;8.76;91.69
2178;BME280;1095;50.992;6.798;2024-02-14T05:57:29;101061.56;;;8.74;92.35
2178;BME280;1095;50.992;6.798;2024-02-14T06:03:31;101056.75;;;8.68;93.52
2178;BME280;1095;50.992;6.798;2024-02-14T06:06:28;101058.66;;;8.66;94.44
2178;BME280;1095;50.992;6.798;2024-02-14T06:09:27;101051.69;;;8.65;94.79
2178;BME280;1095;50.992;6.798;2024-02-14T06:12:20;101055.75;;;8.57;95.19
2178;BME280;1095;50.992;6.798;2024-02-14T06:14:59;101058.47;;;8.56;95.57
2178;BME280;1095;50.992;6.798;2024-02-14T06:18:06;101053.03;;;8.46;96.28
2178;BME280;1095;50.992;6.798;2024-02-14T06:20:33;101055.44;;;8.49;95.54
2178;BME280;1095;50.992;6.798;2024-02-14T06:23:27;101058.19;;;8.48;96.27
2178;BME280;1095;50.992;6.798;2024-02-14T06:26:19;101056.16;;;8.51;95.71
2178;BME280;1095;50.992;6.798;2024-02-14T06:28:46;101070.81;;;8.55;95.43
2178;BME280;1095;50.992;6.798;2024-02-14T06:31:26;101072.50;;;8.56;95.57
2178;BME280;1095;50.992;6.798;2024-02-14T06:33:56;101071.34;;;8.60;95.50
2178;BME280;1095;50.992;6.798;2024-02-14T06:36:31;101078.72;;;8.68;95.34
2178;BME280;1095;50.992;6.798;2024-02-14T06:42:15;101066.19;;;8.83;93.94
2178;BME280;1095;50.992;6.798;2024-02-14T06:45:02;101066.81;;;8.86;94.29
2178;BME280;1095;50.992;6.798;2024-02-14T06:48:05;101081.13;;;8.95;93.79
2178;BME280;1095;50.992;6.798;2024-02-14T06:51:16;101073.63;;;9.02;93.05
2178;BME280;1095;50.992;6.798;2024-02-14T06:54:07;101079.00;;;9.00;92.59
2178;BME280;1095;50.992;6.798;2024-02-14T06:57:15;101084.28;;;9.00;93.28
2178;BME280;1095;50.992;6.798;2024-02-14T06:59:48;101087.03;;;8.99;92.96
2178;BME280;1095;50.992;6.798;2024-02-14T07:05:44;101086.91;;;9.00;92.61
2178;BME280;1095;50.992;6.798;2024-02-14T07:08:21;101095.91;;;8.98;92.72
2178;BME280;1095;50.992;6.798;2024-02-14T07:10:59;101095.91;;;8.98;92.36
2178;BME280;1095;50.992;6.798;2024-02-14T07:13:27;101104.44;;;9.01;92.51
2178;BME280;1095;50.992;6.798;2024-02-14T07:16:08;101101.34;;;9.07;92.06
2178;BME280;1095;50.992;6.798;2024-02-14T07:21:49;101103.75;;;9.10;92.10
2178;BME280;1095;50.992;6.798;2024-02-14T07:24:16;101109.09;;;9.22;91.85
2178;BME280;1095;50.992;6.798;2024-02-14T07:26:48;101113.91;;;9.28;91.17
2178;BME280;1095;50.992;6.798;2024-02-14T07:29:44;101110.78;;;9.23;90.96
2178;BME280;1095;50.992;6.798;2024-02-14T07:32:16;101112.69;;;9.21;91.31
2178;BME280;1095;50.992;6.798;2024-02-14T07:34:51;101111.03;;;9.20;90.66
2178;BME280;1095;50.992;6.798;2024-02-14T07:37:29;101116.06;;;9.23;90.51
2178;BME280;1095;50.992;6.798;2024-02-14T07:40:04;101116.56;;;9.28;90.25
2178;BME280;1095;50.992;6.798;2024-02-14T07:42:40;101120.16;;;9.27;89.70
2178;BME280;1095;50.992;6.798;2024-02-14T07:45:07;101120.03;;;9.28;91.24
2178;BME280;1095;50.992;6.798;2024-02-14T07:47:33;101118.97;;;9.31;90.67
2178;BME280;1095;50.992;6.798;2024-02-14T07:50:00;101121.75;;;9.29;91.08
2178;BME280;1095;50.992;6.798;2024-02-14T07:52:28;101123.06;;;9.35;90.98
2178;BME280;1095;50.992;6.798;2024-02-14T07:54:55;101116.00;;;9.35;90.16
2178;BME280;1095;50.992;6.798;2024-02-14T07:57:23;101114.09;;;9.38;89.17
2178;BME280;1095;50.992;6.798;2024-02-14T07:59:52;101118.56;;;9.48;89.24
2178;BME280;1095;50.992;6.798;2024-02-14T08:02:19;101113.06;;;9.51;88.52
2178;BME280;1095;50.992;6.798;2024-02-14T08:04:47;101116.41;;;9.53;88.38
2178;BME280;1095;50.992;6.798;2024-02-14T08:07:14;101123.84;;;9.48;88.61
2178;BME280;1095;50.992;6.798;2024-02-14T08:09:40;101122.75;;;9.51;88.78
2178;BME280;1095;50.992;6.798;2024-02-14T08:12:07;101122.88;;;9.49;88.88
2178;BME280;1095;50.992;6.798;2024-02-14T08:14:34;101118.34;;;9.51;88.86
2178;BME280;1095;50.992;6.798;2024-02-14T08:17:04;101118.22;;;9.53;88.76
2178;BME280;1095;50.992;6.798;2024-02-14T08:19:31;101124.25;;;9.66;88.17
2178;BME280;1095;50.992;6.798;2024-02-14T08:22:00;101123.69;;;9.74;87.54
2178;BME280;1095;50.992;6.798;2024-02-14T08:24:27;101129.22;;;9.82;87.00
2178;BME280;1095;50.992;6.798;2024-02-14T08:26:54;101128.38;;;9.81;87.11
2178;BME280;1095;50.992;6.798;2024-02-14T08:29:21;101122.88;;;9.96;86.46
2178;BME280;1095;50.992;6.798;2024-02-14T08:31:47;101134.75;;;9.90;86.63
2178;BME280;1095;50.992;6.798;2024-02-14T08:34:16;101127.81;;;10.00;85.79
2178;BME280;1095;50.992;6.798;2024-02-14T08:36:42;101132.16;;;10.01;86.26
2178;BME280;1095;50.992;6.798;2024-02-14T08:39:09;101128.78;;;10.10;85.40
2178;BME280;1095;50.992;6.798;2024-02-14T08:41:39;101129.50;;;10.12;85.63
2178;BME280;1095;50.992;6.798;2024-02-14T08:44:08;101126.38;;;10.07;85.52
2178;BME280;1095;50.992;6.798;2024-02-14T08:46:37;101139.59;;;10.07;86.16
2178;BME280;1095;50.992;6.798;2024-02-14T08:49:04;101142.66;;;10.25;85.66
2178;BME280;1095;50.992;6.798;2024-02-14T08:51:35;101137.25;;;10.27;85.72
2178;BME280;1095;50.992;6.798;2024-02-14T08:54:02;101141.22;;;10.32;85.58
2178;BME280;1095;50.992;6.798;2024-02-14T08:56:30;101134.09;;;10.44;85.19
2178;BME280;1095;50.992;6.798;2024-02-14T08:58:59;101139.41;;;10.55;84.25
2178;BME280;1095;50.992;6.798;2024-02-14T09:01:25;101142.28;;;10.63;83.25
2178;BME280;1095;50.992;6.798;2024-02-14T09:03:52;101136.75;;;10.55;83.97
2178;BME280;1095;50.992;6.798;2024-02-14T09:06:19;101140.81;;;10.71;83.42
2178;BME280;1095;50.992;6.798;2024-02-14T09:08:47;101137.19;;;10.83;82.83
2178;BME280;1095;50.992;6.798;2024-02-14T09:11:16;101133.66;;;11.05;81.45
2178;BME280;1095;50.992;6.798;2024-02-14T09:13:42;101123.75;;;11.18;81.00
2178;BME280;1095;50.992;6.798;2024-02-14T09:16:09;101131.84;;;11.17;80.56
2178;BME280;1095;50.992;6.798;2024-02-14T09:18:37;101121.31;;;11.26;80.14
2178;BME280;1095;50.992;6.798;2024-02-14T09:21:04;101126.03;;;11.11;80.91
2178;BME280;1095;50.992;6.798;2024-02-14T09:23:31;101132.59;;;11.07;80.70
2178;BME280;1095;50.992;6.798;2024-02-14T09:26:02;101132.53;;;11.19;80.12
2178;BME280;1095;50.992;6.798;2024-02-14T09:28:32;101128.66;;;11.23;80.38
2178;BME280;1095;50.992;6.798;2024-02-14T09:31:05;101124.22;;;11.23;80.36
2178;BME280;1095;50.992;6.798;2024-02-14T09:33:35;101127.66;;;11.35;79.74
2178;BME280;1095;50.992;6.798;2024-02-14T09:36:08;101125.47;;;11.40;79.43
2178;BME280;1095;50.992;6.798;2024-02-14T09:38:47;101129.03;;;11.50;79.64
2178;BME280;1095;50.992;6.798;2024-02-14T09:41:22;101123.03;;;11.48;79.49
2178;BME280;1095;50.992;6.798;2024-02-14T09:43:59;101126.69;;;11.36;79.37
2178;BME280;1095;50.992;6.798;2024-02-14T09:46:35;101143.28;;;11.38;79.82
2178;BME280;1095;50.992;6.798;2024-02-14T09:49:19;101140.31;;;11.31;79.74
2178;BME280;1095;50.992;6.798;2024-02-14T09:51:48;101144.03;;;11.40;79.99
2178;BME280;1095;50.992;6.798;2024-02-14T09:54:18;101143.50;;;11.46;79.72
2178;BME280;1095;50.992;6.798;2024-02-14T09:56:54;101145.78;;;11.51;78.98
2178;BME280;1095;50.992;6.798;2024-02-14T09:59:24;101155.41;;;11.52;79.04
2178;BME280;1095;50.992;6.798;2024-02-14T10:01:52;101157.59;;;11.47;78.90
2178;BME280;1095;50.992;6.798;2024-02-14T10:04:18;101150.75;;;11.44;79.10
2178;BME280;1095;50.992;6.798;2024-02-14T10:06:47;101164.00;;;11.44;78.80
2178;BME280;1095;50.992;6.798;2024-02-14T10:09:19;101163.16;;;11.44;78.31
2178;BME280;1095;50.992;6.798;2024-02-14T10:11:46;101155.84;;;11.36;78.96
2178;BME280;1095;50.992;6.798;2024-02-14T10:14:14;101161.72;;;11.39;78.63
2178;BME280;1095;50.992;6.798;2024-02-14T10:16:41;101166.19;;;11.39;78.87
2178;BME280;1095;50.992;6.798;2024-02-14T10:19:14;101177.72;;;11.49;77.88
2178;BME280;1095;50.992;6.798;2024-02-14T10:21:41;101168.28;;;11.56;77.76
2178;BME280;1095;50.992;6.798;2024-02-14T10:24:08;101179.63;;;11.47;78.27
2178;BME280;1095;50.992;6.798;2024-02-14T10:26:36;101180.16;;;11.41;78.66
2178;BME280;1095;50.992;6.798;2024-02-14T10:29:02;101188.84;;;11.43;78.18
2178;BME280;1095;50.992;6.798;2024-02-14T10:31:30;101182.38;;;11.57;77.78
2178;BME280;1095;50.992;6.798;2024-02-14T10:33:58;101187.31;;;11.61;78.35
2178;BME280;1095;50.992;6.798;2024-02-14T10:36:26;101189.19;;;11.71;78.57
2178;BME280;1095;50.992;6.798;2024-02-14T10:38:54;101182.16;;;11.81;79.97
2178;BME280;1095;50.992;6.798;2024-02-14T10:41:23;101176.94;;;11.91;79.79
2178;BME280;1095;50.992;6.798;2024-02-14T10:43:52;101178.94;;;11.98;80.49
2178;BME280;1095;50.992;6.798;2024-02-14T10:46:20;101178.81;;;12.00;79.80
2178;BME280;1095;50.992;6.798;2024-02-14T10:48:50;101180.56;;;11.89;80.40
2178;BME280;1095;50.992;6.798;2024-02-14T10:51:33;101185.28;;;11.86;81.74
2178;BME280;1095;50.992;6.798;2024-02-14T10:54:04;101193.38;;;11.84;82.24
2178;BME280;1095;50.992;6.798;2024-02-14T10:56:42;101192.91;;;11.79;84.00
2178;BME280;1095;50.992;6.798;2024-02-14T10:59:10;101198.31;;;11.78;83.58
2178;BME280;1095;50.992;6.798;2024-02-14T11:01:39;101198.06;;;11.81;83.94
2178;BME280;1095;50.992;6.798;2024-02-14T11:04:17;101200.13;;;11.77;85.32
2178;BME280;1095;50.992;6.798;2024-02-14T11:06:52;101196.94;;;11.62;86.70
2178;BME280;1095;50.992;6.798;2024-02-14T11:09:33;101191.09;;;11.48;88.56
2178;BME280;1095;50.992;6.798;2024-02-14T11:12:06;101193.47;;;11.51;89.92
2178;BME280;1095;50.992;6.798;2024-02-14T11:14:35;101181.13;;;11.40;90.66
2178;BME280;1095;50.992;6.798;2024-02-14T11:17:08;101177.41;;;11.63;89.20
2178;BME280;1095;50.992;6.798;2024-02-14T11:19:40;101172.75;;;11.88;88.62
2178;BME280;1095;50.992;6.798;2024-02-14T11:22:10;101182.97;;;11.93;88.94
2178;BME280;1095;50.992;6.798;2024-02-14T11:24:40;101178.41;;;12.04;88.59
2178;BME280;1095;50.992;6.798;2024-02-14T11:27:10;101182.16;;;12.23;87.31
2178;BME280;1095;50.992;6.798;2024-02-14T11:29:39;101175.63;;;12.27;86.53
2178;BME280;1095;50.992;6.798;2024-02-14T11:32:07;101182.28;;;12.42;86.75
2178;BME280;1095;50.992;6.798;2024-02-14T11:34:35;101180.31;;;12.44;85.71
2178;BME280;1095;50.992;6.798;2024-02-14T11:37:04;101177.66;;;12.44;85.79
2178;BME280;1095;50.992;6.798;2024-02-14T11:39:35;101178.38;;;12.46;84.00
2178;BME280;1095;50.992;6.798;2024-02-14T11:42:03;101169.19;;;12.50;82.74
2178;BME280;1095;50.992;6.798;2024-02-14T11:44:34;101170.75;;;12.62;82.25
2178;BME280;1095;50.992;6.798;2024-02-14T11:47:03;101172.88;;;12.69;81.58
2178;BME280;1095;50.992;6.798;2024-02-14T11:49:30;101169.78;;;12.63;81.56
2178;BME280;1095;50.992;6.798;2024-02-14T11:51:56;101165.84;;;12.58;81.74
2178;BME280;1095;50.992;6.798;2024-02-14T11:54:25;101166.69;;;12.58;81.71
2178;BME280;1095;50.992;6.798;2024-02-14T11:56:51;101162.34;;;12.57;80.78
2178;BME280;1095;50.992;6.798;2024-02-14T11:59:18;101167.00;;;12.34;81.62
2178;BME280;1095;50.992;6.798;2024-02-14T12:01:48;101152.63;;;12.37;81.15
2178;BME280;1095;50.992;6.798;2024-02-14T12:04:17;101150.28;;;12.44;80.56
2178;BME280;1095;50.992;6.798;2024-02-14T12:06:44;101156.47;;;12.54;80.40
2178;BME280;1095;50.992;6.798;2024-02-14T12:09:11;101162.50;;;12.56;79.68
2178;BME280;1095;50.992;6.798;2024-02-14T12:11:41;101157.66;;;12.40;80.17
2178;BME280;1095;50.992;6.798;2024-02-14T12:14:09;101164.03;;;12.58;79.26
2178;BME280;1095;50.992;6.798;2024-02-14T12:16:37;101153.09;;;12.52;79.98
2178;BME280;1095;50.992;6.798;2024-02-14T12:19:06;101159.41;;;12.51;80.76
2178;BME280;1095;50.992;6.798;2024-02-14T12:21:35;101154.59;;;12.45;81.09
2178;BME280;1095;50.992;6.798;2024-02-14T12:24:03;101152.34;;;12.40;81.03
2178;BME280;1095;50.992;6.798;2024-02-14T12:26:30;101154.59;;;12.45;81.15
2178;BME280;1095;50.992;6.798;2024-02-14T12:29:01;101157.59;;;12.51;80.92
2178;BME280;1095;50.992;6.798;2024-02-14T12:31:29;101157.44;;;12.53;81.58
2178;BME280;1095;50.992;6.798;2024-02-14T12:33:56;101153.25;;;12.50;80.93
2178;BME280;1095;50.992;6.798;2024-02-14T12:36:25;101157.28;;;12.54;80.83
2178;BME280;1095;50.992;6.798;2024-02-14T12:38:54;101154.91;;;12.42;81.71
2178;BME280;1095;50.992;6.798;2024-02-14T12:41:21;101147.59;;;12.34;82.10
2178;BME280;1095;50.992;6.798;2024-02-14T12:43:48;101148.88;;;12.39;80.89
2178;BME280;1095;50.992;6.798;2024-02-14T12:46:16;101151.78;;;12.36;80.89
2178;BME280;1095;50.992;6.798;2024-02-14T12:48:43;101143.72;;;12.48;80.79
2178;BME280;1095;50.992;6.798;2024-02-14T12:51:10;101145.81;;;12.44;81.13
2178;BME280;1095;50.992;6.798;2024-02-14T12:53:37;101151.72;;;12.57;79.90
2178;BME280;1095;50.992;6.798;2024-02-14T12:56:04;101139.31;;;12.68;79.88
2178;BME280;1095;50.992;6.798;2024-02-14T12:58:31;101126.63;;;12.71;79.47
2178;BME280;1095;50.992;6.798;2024-02-14T13:00:58;101131.22;;;12.69;79.61
2178;BME280;1095;50.992;6.798;2024-02-14T13:03:26;101136.13;;;12.74;79.60
2178;BME280;1095;50.992;6.798;2024-02-14T13:05:54;101144.38;;;12.71;80.14
2178;BME280;1095;50.992;6.798;2024-02-14T13:08:20;101140.72;;;12.72;80.11
2178;BME280;1095;50.992;6.798;2024-02-14T13:10:48;101142.25;;;12.64;80.72
2178;BME280;1095;50.992;6.798;2024-02-14T13:13:15;101139.59;;;12.64;80.72
2178;BME280;1095;50.992;6.798;2024-02-14T13:15:42;101141.13;;;12.67;80.33
2178;BME280;1095;50.992;6.798;2024-02-14T13:18:10;101135.13;;;12.65;80.70
2178;BME280;1095;50.992;6.798;2024-02-14T13:20:38;101134.47;;;12.73;80.29
2178;BME280;1095;50.992;6.798;2024-02-14T13:23:04;101127.34;;;12.73;80.68
2178;BME280;1095;50.992;6.798;2024-02-14T13:25:34;101123.53;;;12.76;80.90
2178;BME280;1095;50.992;6.798;2024-02-14T13:28:01;101124.69;;;12.83;81.44
2178;BME280;1095;50.992;6.798;2024-02-14T13:30:28;101130.28;;;12.80;82.17
2178;BME280;1095;50.992;6.798;2024-02-14T13:32:55;101136.81;;;12.76;82.55
2178;BME280;1095;50.992;6.798;2024-02-14T13:35:22;101139.31;;;12.68;83.08
2178;BME280;1095;50.992;6.798;2024-02-14T13:37:50;101144.34;;;12.61;83.46
2178;BME280;1095;50.992;6.798;2024-02-14T13:40:17;101138.00;;;12.52;84.50
2178;BME280;1095;50.992;6.798;2024-02-14T13:42:43;101142.53;;;12.61;84.86
2178;BME280;1095;50.992;6.798;2024-02-14T13:45:10;101144.75;;;12.56;85.52
2178;BME280;1095;50.992;6.798;2024-02-14T13:47:37;101151.00;;;12.46;86.06
2178;BME280;1095;50.992;6.798;2024-02-14T13:50:05;101138.38;;;12.38;86.95
2178;BME280;1095;50.992;6.798;2024-02-14T13:52:32;101136.97;;;12.34;86.67
2178;BME280;1095;50.992;6.798;2024-02-14T13:55:01;101132.72;;;12.22;88.43
2178;BME280;1095;50.992;6.798;2024-02-14T13:57:28;101140.16;;;12.28;88.03
2178;BME280;1095;50.992;6.798;2024-02-14T13:59:55;101129.22;;;12.21;90.48
2178;BME280;1095;50.992;6.798;2024-02-14T14:02:22;101139.63;;;12.34;89.47
2178;BME280;1095;50.992;6.798;2024-02-14T14:04:49;101143.81;;;12.36;88.98
2178;BME280;1095;50.992;6.798;2024-02-14T14:07:18;101131.66;;;12.34;89.46
2178;BME280;1095;50.992;6.798;2024-02-14T14:09:48;101131.03;;;12.21;90.89
2178;BME280;1095;50.992;6.798;2024-02-14T14:12:16;101138.56;;;12.16;91.87